sensor_id;sensor_type;location;lat;lon;timestamp;temperature;humidity
17587;DHT22;8912;52.336;17.172;2023-01-19T00:01:07;1.60;99.90
17587;DHT22;8912;52.336;17.172;2023-01-19T00:03:37;1.50;99.90
17587;DHT22;8912;52.336;17.172;2023-01-19T00:06:06;1.50;99.90
17587;DHT22;8912;52.336;17.172;2023-01-19T00:08:36;1.40;99.90
17587;DHT22;8912;52.336;17.172;2023-01-19T00:11:05;1.40;99.90
17587;DHT22;8912;52.336;17.172;2023-01-19T00:13:35;1.30;99.90
17587;DHT22;8912;52.336;17.172;2023-01-19T00:16:05;1.20;99.90
17587;DHT22;8912;52.336;17.172;2023-01-19T00:18:34;1.20;99.90
17587;DHT22;8912;52.336;17.172;2023-01-19T00:21:05;1.30;99.90
17587;DHT22;8912;52.336;17.172;2023-01-19T00:23:34;1.40;99.90
17587;DHT22;8912;52.336;17.172;2023-01-19T00:26:03;1.40;99.90
17587;DHT22;8912;52.336;17.172;2023-01-19T00:28:33;1.50;99.90
17587;DHT22;8912;52.336;17.172;2023-01-19T00:31:02;1.60;99.90
17587;DHT22;8912;52.336;17.172;2023-01-19T00:33:31;1.60;99.90
17587;DHT22;8912;52.336;17.172;2023-01-19T00:36:00;1.50;99.90
17587;DHT22;8912;52.336;17.172;2023-01-19T00:38:30;1.40;99.90
17587;DHT22;8912;52.336;17.172;2023-01-19T00:41:00;1.30;99.90
17587;DHT22;8912;52.336;17.172;2023-01-19T00:43:28;1.40;99.90
17587;DHT22;8912;52.336;17.172;2023-01-19T00:45:57;1.30;99.90
17587;DHT22;8912;52.336;17.172;2023-01-19T00:48:27;1.10;99.90
17587;DHT22;8912;52.336;17.172;2023-01-19T00:50:57;1.10;99.90
17587;DHT22;8912;52.336;17.172;2023-01-19T00:53:26;1.10;99.90
17587;DHT22;8912;52.336;17.172;2023-01-19T00:56:00;1.20;99.90
17587;DHT22;8912;52.336;17.172;2023-01-19T00:58:29;1.40;99.90
17587;DHT22;8912;52.336;17.172;2023-01-19T01:00:58;1.40;99.90
17587;DHT22;8912;52.336;17.172;2023-01-19T01:03:31;1.30;99.90
17587;DHT22;8912;52.336;17.172;2023-01-19T01:06:00;1.30;99.90
17587;DHT22;8912;52.336;17.172;2023-01-19T01:08:30;1.30;99.90
17587;DHT22;8912;52.336;17.172;2023-01-19T01:11:00;1.30;99.90
17587;DHT22;8912;52.336;17.172;2023-01-19T01:13:29;1.20;99.90
17587;DHT22;8912;52.336;17.172;2023-01-19T01:15:59;1.20;99.90
17587;DHT22;8912;52.336;17.172;2023-01-19T01:18:28;1.10;99.90
17587;DHT22;8912;52.336;17.172;2023-01-19T01:21:00;1.20;99.90
17587;DHT22;8912;52.336;17.172;2023-01-19T01:23:29;1.10;99.90
17587;DHT22;8912;52.336;17.172;2023-01-19T01:26:00;1.10;99.90
17587;DHT22;8912;52.336;17.172;2023-01-19T01:28:29;1.10;99.90
17587;DHT22;8912;52.336;17.172;2023-01-19T01:30:58;1.10;99.90
17587;DHT22;8912;52.336;17.172;2023-01-19T01:33:28;1.10;99.90
17587;DHT22;8912;52.336;17.172;2023-01-19T01:36:08;1.10;99.90
17587;DHT22;8912;52.336;17.172;2023-01-19T01:38:38;1.10;99.90
17587;DHT22;8912;52.336;17.172;2023-01-19T01:41:09;1.20;99.90
17587;DHT22;8912;52.336;17.172;2023-01-19T01:43:43;1.20;99.90
17587;DHT22;8912;52.336;17.172;2023-01-19T01:46:13;1.30;99.90
17587;DHT22;8912;52.336;17.172;2023-01-19T01:48:47;1.30;99.90
17587;DHT22;8912;52.336;17.172;2023-01-19T01:51:20;1.30;99.90
17587;DHT22;8912;52.336;17.172;2023-01-19T01:54:03;1.20;99.90
17587;DHT22;8912;52.336;17.172;2023-01-19T01:56:38;1.20;99.90
17587;DHT22;8912;52.336;17.172;2023-01-19T01:59:10;1.20;99.90
17587;DHT22;8912;52.336;17.172;2023-01-19T02:01:44;1.20;99.90
17587;DHT22;8912;52.336;17.172;2023-01-19T02:04:49;1.20;99.90
17587;DHT22;8912;52.336;17.172;2023-01-19T02:07:23;1.10;99.90
17587;DHT22;8912;52.336;17.172;2023-01-19T02:10:11;1.10;99.90
17587;DHT22;8912;52.336;17.172;2023-01-19T02:12:59;1.00;99.90
17587;DHT22;8912;52.336;17.172;2023-01-19T02:15:48;1.00;99.90
17587;DHT22;8912;52.336;17.172;2023-01-19T02:18:20;1.10;99.90
17587;DHT22;8912;52.336;17.172;2023-01-19T02:20:56;1.20;99.90
17587;DHT22;8912;52.336;17.172;2023-01-19T02:23:37;1.20;99.90
17587;DHT22;8912;52.336;17.172;2023-01-19T02:26:08;1.10;99.90
17587;DHT22;8912;52.336;17.172;2023-01-19T02:28:40;1.20;99.90
17587;DHT22;8912;52.336;17.172;2023-01-19T02:31:10;1.20;99.90
17587;DHT22;8912;52.336;17.172;2023-01-19T02:33:39;1.00;99.90
17587;DHT22;8912;52.336;17.172;2023-01-19T02:36:10;1.00;99.90
17587;DHT22;8912;52.336;17.172;2023-01-19T02:38:44;1.00;99.90
17587;DHT22;8912;52.336;17.172;2023-01-19T02:41:16;1.00;99.90
17587;DHT22;8912;52.336;17.172;2023-01-19T02:43:47;1.00;99.90
17587;DHT22;8912;52.336;17.172;2023-01-19T02:46:17;1.10;99.90
17587;DHT22;8912;52.336;17.172;2023-01-19T02:48:46;1.00;99.90
17587;DHT22;8912;52.336;17.172;2023-01-19T02:51:17;1.10;99.90
17587;DHT22;8912;52.336;17.172;2023-01-19T02:54:08;1.10;99.90
17587;DHT22;8912;52.336;17.172;2023-01-19T02:56:52;1.00;99.90
17587;DHT22;8912;52.336;17.172;2023-01-19T02:59:31;1.00;99.90
17587;DHT22;8912;52.336;17.172;2023-01-19T03:02:17;0.90;99.90
17587;DHT22;8912;52.336;17.172;2023-01-19T03:05:09;0.90;99.90
17587;DHT22;8912;52.336;17.172;2023-01-19T03:07:56;0.80;99.90
17587;DHT22;8912;52.336;17.172;2023-01-19T03:10:32;0.80;99.90
17587;DHT22;8912;52.336;17.172;2023-01-19T03:13:10;0.80;99.90
17587;DHT22;8912;52.336;17.172;2023-01-19T03:15:43;0.70;99.90
17587;DHT22;8912;52.336;17.172;2023-01-19T03:18:19;0.80;99.90
17587;DHT22;8912;52.336;17.172;2023-01-19T03:20:51;0.80;99.90
17587;DHT22;8912;52.336;17.172;2023-01-19T03:23:25;0.90;99.90
17587;DHT22;8912;52.336;17.172;2023-01-19T03:25:58;1.00;99.90
17587;DHT22;8912;52.336;17.172;2023-01-19T03:28:29;1.00;99.90
17587;DHT22;8912;52.336;17.172;2023-01-19T03:31:02;0.90;99.90
17587;DHT22;8912;52.336;17.172;2023-01-19T03:33:35;0.90;99.90
17587;DHT22;8912;52.336;17.172;2023-01-19T03:36:08;0.90;99.90
17587;DHT22;8912;52.336;17.172;2023-01-19T03:38:41;1.00;99.90
17587;DHT22;8912;52.336;17.172;2023-01-19T03:41:14;0.90;99.90
17587;DHT22;8912;52.336;17.172;2023-01-19T03:43:46;0.90;99.90
17587;DHT22;8912;52.336;17.172;2023-01-19T03:46:18;0.90;99.90
17587;DHT22;8912;52.336;17.172;2023-01-19T03:48:48;0.90;99.90
17587;DHT22;8912;52.336;17.172;2023-01-19T03:51:18;0.80;99.90
17587;DHT22;8912;52.336;17.172;2023-01-19T03:53:47;0.90;99.90
17587;DHT22;8912;52.336;17.172;2023-01-19T03:56:19;0.90;99.90
17587;DHT22;8912;52.336;17.172;2023-01-19T03:58:49;0.90;99.90
17587;DHT22;8912;52.336;17.172;2023-01-19T04:01:19;0.90;99.90
17587;DHT22;8912;52.336;17.172;2023-01-19T04:03:50;0.80;99.90
17587;DHT22;8912;52.336;17.172;2023-01-19T04:06:19;0.90;99.90
17587;DHT22;8912;52.336;17.172;2023-01-19T04:08:49;0.90;99.90
17587;DHT22;8912;52.336;17.172;2023-01-19T04:11:20;0.90;99.90
17587;DHT22;8912;52.336;17.172;2023-01-19T04:13:49;0.90;99.90
17587;DHT22;8912;52.336;17.172;2023-01-19T04:16:18;0.90;99.90
17587;DHT22;8912;52.336;17.172;2023-01-19T04:18:48;1.00;99.90
17587;DHT22;8912;52.336;17.172;2023-01-19T04:21:17;1.00;99.90
17587;DHT22;8912;52.336;17.172;2023-01-19T04:23:46;1.10;99.90
17587;DHT22;8912;52.336;17.172;2023-01-19T04:26:16;1.10;99.90
17587;DHT22;8912;52.336;17.172;2023-01-19T04:28:46;1.10;99.90
17587;DHT22;8912;52.336;17.172;2023-01-19T04:31:16;1.00;99.90
17587;DHT22;8912;52.336;17.172;2023-01-19T04:33:45;1.00;99.90
17587;DHT22;8912;52.336;17.172;2023-01-19T04:36:14;0.90;99.90
17587;DHT22;8912;52.336;17.172;2023-01-19T04:38:44;0.90;99.90
17587;DHT22;8912;52.336;17.172;2023-01-19T04:41:15;1.00;99.90
17587;DHT22;8912;52.336;17.172;2023-01-19T04:43:46;1.10;99.90
17587;DHT22;8912;52.336;17.172;2023-01-19T04:46:15;1.10;99.90
17587;DHT22;8912;52.336;17.172;2023-01-19T04:48:44;1.10;99.90
17587;DHT22;8912;52.336;17.172;2023-01-19T04:51:13;1.10;99.90
17587;DHT22;8912;52.336;17.172;2023-01-19T04:53:42;1.10;99.90
17587;DHT22;8912;52.336;17.172;2023-01-19T04:56:11;1.10;99.90
17587;DHT22;8912;52.336;17.172;2023-01-19T04:58:40;1.10;99.90
17587;DHT22;8912;52.336;17.172;2023-01-19T05:01:11;1.10;99.90
17587;DHT22;8912;52.336;17.172;2023-01-19T05:03:40;1.10;99.90
17587;DHT22;8912;52.336;17.172;2023-01-19T05:06:09;1.10;99.90
17587;DHT22;8912;52.336;17.172;2023-01-19T05:08:38;1.10;99.90
17587;DHT22;8912;52.336;17.172;2023-01-19T05:11:07;1.00;99.90
17587;DHT22;8912;52.336;17.172;2023-01-19T05:13:36;1.00;99.90
17587;DHT22;8912;52.336;17.172;2023-01-19T05:16:06;1.00;99.90
17587;DHT22;8912;52.336;17.172;2023-01-19T05:18:37;0.90;99.90
17587;DHT22;8912;52.336;17.172;2023-01-19T05:21:06;1.00;99.90
17587;DHT22;8912;52.336;17.172;2023-01-19T05:23:35;0.90;99.90
17587;DHT22;8912;52.336;17.172;2023-01-19T05:26:04;0.90;99.90
17587;DHT22;8912;52.336;17.172;2023-01-19T05:28:35;0.90;99.90
17587;DHT22;8912;52.336;17.172;2023-01-19T05:31:05;0.90;99.90
17587;DHT22;8912;52.336;17.172;2023-01-19T05:33:34;0.90;99.90
17587;DHT22;8912;52.336;17.172;2023-01-19T05:36:05;0.80;99.90
17587;DHT22;8912;52.336;17.172;2023-01-19T05:38:34;0.90;99.90
17587;DHT22;8912;52.336;17.172;2023-01-19T05:41:04;0.80;99.90
17587;DHT22;8912;52.336;17.172;2023-01-19T05:43:33;0.80;99.90
17587;DHT22;8912;52.336;17.172;2023-01-19T05:46:03;0.80;99.90
17587;DHT22;8912;52.336;17.172;2023-01-19T05:48:32;0.80;99.90
17587;DHT22;8912;52.336;17.172;2023-01-19T05:51:02;0.80;99.90
17587;DHT22;8912;52.336;17.172;2023-01-19T05:53:33;0.80;99.90
17587;DHT22;8912;52.336;17.172;2023-01-19T05:56:04;0.80;99.90
17587;DHT22;8912;52.336;17.172;2023-01-19T05:58:36;0.90;99.90
17587;DHT22;8912;52.336;17.172;2023-01-19T06:01:07;0.90;99.90
17587;DHT22;8912;52.336;17.172;2023-01-19T06:03:37;0.90;99.90
17587;DHT22;8912;52.336;17.172;2023-01-19T06:06:07;0.90;99.90
17587;DHT22;8912;52.336;17.172;2023-01-19T06:08:38;0.90;99.90
17587;DHT22;8912;52.336;17.172;2023-01-19T06:11:07;1.00;99.90
17587;DHT22;8912;52.336;17.172;2023-01-19T06:13:36;1.00;99.90
17587;DHT22;8912;52.336;17.172;2023-01-19T06:16:09;1.00;99.90
17587;DHT22;8912;52.336;17.172;2023-01-19T06:18:38;1.00;99.90
17587;DHT22;8912;52.336;17.172;2023-01-19T06:21:08;1.10;99.90
17587;DHT22;8912;52.336;17.172;2023-01-19T06:23:40;1.00;99.90
17587;DHT22;8912;52.336;17.172;2023-01-19T06:26:09;1.10;99.90
17587;DHT22;8912;52.336;17.172;2023-01-19T06:28:38;1.00;99.90
17587;DHT22;8912;52.336;17.172;2023-01-19T06:31:07;1.10;99.90
17587;DHT22;8912;52.336;17.172;2023-01-19T06:33:36;1.10;99.90
17587;DHT22;8912;52.336;17.172;2023-01-19T06:36:06;1.10;99.90
17587;DHT22;8912;52.336;17.172;2023-01-19T06:38:35;1.10;99.90
17587;DHT22;8912;52.336;17.172;2023-01-19T06:41:06;1.20;99.90
17587;DHT22;8912;52.336;17.172;2023-01-19T06:43:35;1.20;99.90
17587;DHT22;8912;52.336;17.172;2023-01-19T06:46:04;1.10;99.90
17587;DHT22;8912;52.336;17.172;2023-01-19T06:48:33;1.20;99.90
17587;DHT22;8912;52.336;17.172;2023-01-19T06:51:02;1.20;99.90
17587;DHT22;8912;52.336;17.172;2023-01-19T06:53:32;1.20;99.90
17587;DHT22;8912;52.336;17.172;2023-01-19T06:56:01;1.20;99.90
17587;DHT22;8912;52.336;17.172;2023-01-19T06:58:33;1.20;99.90
17587;DHT22;8912;52.336;17.172;2023-01-19T07:01:03;1.20;99.90
17587;DHT22;8912;52.336;17.172;2023-01-19T07:03:33;1.20;99.90
17587;DHT22;8912;52.336;17.172;2023-01-19T07:06:04;1.30;99.90
17587;DHT22;8912;52.336;17.172;2023-01-19T07:08:35;1.20;99.90
17587;DHT22;8912;52.336;17.172;2023-01-19T07:11:05;1.20;99.90
17587;DHT22;8912;52.336;17.172;2023-01-19T07:13:56;1.20;99.90
17587;DHT22;8912;52.336;17.172;2023-01-19T07:16:25;1.10;99.90
17587;DHT22;8912;52.336;17.172;2023-01-19T07:18:54;1.20;99.90
17587;DHT22;8912;52.336;17.172;2023-01-19T07:21:23;1.20;99.90
17587;DHT22;8912;52.336;17.172;2023-01-19T07:23:55;1.20;99.90
17587;DHT22;8912;52.336;17.172;2023-01-19T07:26:24;1.20;99.90
17587;DHT22;8912;52.336;17.172;2023-01-19T07:28:55;1.20;99.90
17587;DHT22;8912;52.336;17.172;2023-01-19T07:31:24;1.30;99.90
17587;DHT22;8912;52.336;17.172;2023-01-19T07:33:54;1.30;99.90
17587;DHT22;8912;52.336;17.172;2023-01-19T07:36:24;1.30;99.90
17587;DHT22;8912;52.336;17.172;2023-01-19T07:38:53;1.30;99.90
17587;DHT22;8912;52.336;17.172;2023-01-19T07:41:22;1.30;99.90
17587;DHT22;8912;52.336;17.172;2023-01-19T07:43:51;1.30;99.90
17587;DHT22;8912;52.336;17.172;2023-01-19T07:46:22;1.30;99.90
17587;DHT22;8912;52.336;17.172;2023-01-19T07:48:51;1.30;99.90
17587;DHT22;8912;52.336;17.172;2023-01-19T07:51:20;1.30;99.90
17587;DHT22;8912;52.336;17.172;2023-01-19T07:53:50;1.30;99.90
17587;DHT22;8912;52.336;17.172;2023-01-19T07:56:19;1.40;99.90
17587;DHT22;8912;52.336;17.172;2023-01-19T07:58:48;1.40;99.90
17587;DHT22;8912;52.336;17.172;2023-01-19T08:01:19;1.40;99.90
17587;DHT22;8912;52.336;17.172;2023-01-19T08:03:49;1.30;99.90
17587;DHT22;8912;52.336;17.172;2023-01-19T08:06:20;1.30;99.90
17587;DHT22;8912;52.336;17.172;2023-01-19T08:08:50;1.30;99.90
17587;DHT22;8912;52.336;17.172;2023-01-19T08:11:19;1.30;99.90
17587;DHT22;8912;52.336;17.172;2023-01-19T08:13:48;1.30;99.90
17587;DHT22;8912;52.336;17.172;2023-01-19T08:16:17;1.30;99.90
17587;DHT22;8912;52.336;17.172;2023-01-19T08:18:46;1.30;99.90
17587;DHT22;8912;52.336;17.172;2023-01-19T08:21:17;1.40;99.90
17587;DHT22;8912;52.336;17.172;2023-01-19T08:23:51;1.40;99.90
17587;DHT22;8912;52.336;17.172;2023-01-19T08:26:25;1.50;99.90
17587;DHT22;8912;52.336;17.172;2023-01-19T08:28:58;1.40;99.90
17587;DHT22;8912;52.336;17.172;2023-01-19T08:31:28;1.40;99.90
17587;DHT22;8912;52.336;17.172;2023-01-19T08:33:57;1.40;99.90
17587;DHT22;8912;52.336;17.172;2023-01-19T08:36:28;1.40;99.90
17587;DHT22;8912;52.336;17.172;2023-01-19T08:38:57;1.40;99.90
17587;DHT22;8912;52.336;17.172;2023-01-19T08:41:26;1.40;99.90
17587;DHT22;8912;52.336;17.172;2023-01-19T08:43:55;1.40;99.90
17587;DHT22;8912;52.336;17.172;2023-01-19T08:46:24;1.40;99.90
17587;DHT22;8912;52.336;17.172;2023-01-19T08:48:53;1.40;99.90
17587;DHT22;8912;52.336;17.172;2023-01-19T08:51:22;1.50;99.90
17587;DHT22;8912;52.336;17.172;2023-01-19T08:53:53;1.40;99.90
17587;DHT22;8912;52.336;17.172;2023-01-19T08:56:22;1.40;99.90
17587;DHT22;8912;52.336;17.172;2023-01-19T08:58:51;1.40;99.90
17587;DHT22;8912;52.336;17.172;2023-01-19T09:01:35;1.30;99.90
17587;DHT22;8912;52.336;17.172;2023-01-19T09:04:05;1.30;99.90
17587;DHT22;8912;52.336;17.172;2023-01-19T09:06:34;1.30;99.90
17587;DHT22;8912;52.336;17.172;2023-01-19T09:09:04;1.40;99.90
17587;DHT22;8912;52.336;17.172;2023-01-19T09:11:34;1.40;99.90
17587;DHT22;8912;52.336;17.172;2023-01-19T09:14:03;1.50;99.90
17587;DHT22;8912;52.336;17.172;2023-01-19T09:16:32;1.50;99.90
17587;DHT22;8912;52.336;17.172;2023-01-19T09:19:01;1.50;99.90
17587;DHT22;8912;52.336;17.172;2023-01-19T09:21:30;1.60;99.90
17587;DHT22;8912;52.336;17.172;2023-01-19T09:23:59;1.60;99.90
17587;DHT22;8912;52.336;17.172;2023-01-19T09:26:30;1.70;99.90
17587;DHT22;8912;52.336;17.172;2023-01-19T09:28:59;1.60;99.90
17587;DHT22;8912;52.336;17.172;2023-01-19T09:31:28;1.60;99.90
17587;DHT22;8912;52.336;17.172;2023-01-19T09:33:58;1.70;99.90
17587;DHT22;8912;52.336;17.172;2023-01-19T09:36:27;1.70;99.90
17587;DHT22;8912;52.336;17.172;2023-01-19T09:38:56;1.80;99.90
17587;DHT22;8912;52.336;17.172;2023-01-19T09:41:25;1.80;99.90
17587;DHT22;8912;52.336;17.172;2023-01-19T09:43:58;1.90;99.90
17587;DHT22;8912;52.336;17.172;2023-01-19T09:46:33;2.00;99.90
17587;DHT22;8912;52.336;17.172;2023-01-19T09:49:11;2.00;99.90
17587;DHT22;8912;52.336;17.172;2023-01-19T09:51:44;2.00;99.90
17587;DHT22;8912;52.336;17.172;2023-01-19T09:54:15;2.00;99.90
17587;DHT22;8912;52.336;17.172;2023-01-19T09:56:46;2.00;99.90
17587;DHT22;8912;52.336;17.172;2023-01-19T09:59:22;2.10;99.90
17587;DHT22;8912;52.336;17.172;2023-01-19T10:02:10;2.10;99.90
17587;DHT22;8912;52.336;17.172;2023-01-19T10:04:41;2.00;99.90
17587;DHT22;8912;52.336;17.172;2023-01-19T10:07:18;2.00;99.90
17587;DHT22;8912;52.336;17.172;2023-01-19T10:10:04;2.00;99.90
17587;DHT22;8912;52.336;17.172;2023-01-19T10:12:42;1.90;99.90
17587;DHT22;8912;52.336;17.172;2023-01-19T10:15:22;2.00;99.90
17587;DHT22;8912;52.336;17.172;2023-01-19T10:18:04;2.00;99.90
17587;DHT22;8912;52.336;17.172;2023-01-19T10:20:38;2.10;99.90
17587;DHT22;8912;52.336;17.172;2023-01-19T10:23:24;2.10;99.90
17587;DHT22;8912;52.336;17.172;2023-01-19T10:25:59;1.90;99.90
17587;DHT22;8912;52.336;17.172;2023-01-19T10:28:29;2.00;99.90
17587;DHT22;8912;52.336;17.172;2023-01-19T10:31:00;2.10;99.90
17587;DHT22;8912;52.336;17.172;2023-01-19T10:33:32;2.10;99.90
17587;DHT22;8912;52.336;17.172;2023-01-19T10:36:09;2.00;99.90
17587;DHT22;8912;52.336;17.172;2023-01-19T10:38:43;1.90;99.90
17587;DHT22;8912;52.336;17.172;2023-01-19T10:41:19;2.00;99.90
17587;DHT22;8912;52.336;17.172;2023-01-19T10:43:58;2.00;99.90
17587;DHT22;8912;52.336;17.172;2023-01-19T10:46:34;2.10;99.90
17587;DHT22;8912;52.336;17.172;2023-01-19T10:49:05;1.90;99.90
17587;DHT22;8912;52.336;17.172;2023-01-19T10:51:46;1.80;99.90
17587;DHT22;8912;52.336;17.172;2023-01-19T10:54:15;1.80;99.90
17587;DHT22;8912;52.336;17.172;2023-01-19T10:56:50;1.70;99.90
17587;DHT22;8912;52.336;17.172;2023-01-19T10:59:32;1.60;99.90
17587;DHT22;8912;52.336;17.172;2023-01-19T11:02:13;1.50;99.90
17587;DHT22;8912;52.336;17.172;2023-01-19T11:04:44;1.40;99.90
17587;DHT22;8912;52.336;17.172;2023-01-19T11:07:19;1.30;99.90
17587;DHT22;8912;52.336;17.172;2023-01-19T11:09:49;1.30;99.90
17587;DHT22;8912;52.336;17.172;2023-01-19T11:12:33;1.30;99.90
17587;DHT22;8912;52.336;17.172;2023-01-19T11:15:13;1.30;99.90
17587;DHT22;8912;52.336;17.172;2023-01-19T11:17:45;1.30;99.90
17587;DHT22;8912;52.336;17.172;2023-01-19T11:20:21;1.30;99.90
17587;DHT22;8912;52.336;17.172;2023-01-19T11:23:03;1.30;99.90
17587;DHT22;8912;52.336;17.172;2023-01-19T11:25:34;1.40;99.90
17587;DHT22;8912;52.336;17.172;2023-01-19T11:28:04;1.30;99.90
17587;DHT22;8912;52.336;17.172;2023-01-19T11:30:34;1.30;99.90
17587;DHT22;8912;52.336;17.172;2023-01-19T11:33:05;1.30;99.90
17587;DHT22;8912;52.336;17.172;2023-01-19T11:35:36;1.20;99.90
17587;DHT22;8912;52.336;17.172;2023-01-19T11:38:23;1.20;99.90
17587;DHT22;8912;52.336;17.172;2023-01-19T11:40:55;1.10;99.90
17587;DHT22;8912;52.336;17.172;2023-01-19T11:43:28;1.10;99.90
17587;DHT22;8912;52.336;17.172;2023-01-19T11:46:15;1.00;99.90
17587;DHT22;8912;52.336;17.172;2023-01-19T11:48:52;1.10;99.90
17587;DHT22;8912;52.336;17.172;2023-01-19T11:51:33;1.00;99.90
17587;DHT22;8912;52.336;17.172;2023-01-19T11:54:14;1.00;99.90
17587;DHT22;8912;52.336;17.172;2023-01-19T11:56:46;1.00;99.90
17587;DHT22;8912;52.336;17.172;2023-01-19T11:59:18;1.00;99.90
17587;DHT22;8912;52.336;17.172;2023-01-19T12:01:50;0.90;99.90
17587;DHT22;8912;52.336;17.172;2023-01-19T12:04:28;1.00;99.90
17587;DHT22;8912;52.336;17.172;2023-01-19T12:07:02;1.00;99.90
17587;DHT22;8912;52.336;17.172;2023-01-19T12:09:37;1.10;99.90
17587;DHT22;8912;52.336;17.172;2023-01-19T12:12:15;1.10;99.90
17587;DHT22;8912;52.336;17.172;2023-01-19T12:14:56;1.10;99.90
17587;DHT22;8912;52.336;17.172;2023-01-19T12:17:27;1.20;99.90
17587;DHT22;8912;52.336;17.172;2023-01-19T12:20:04;1.30;99.90
17587;DHT22;8912;52.336;17.172;2023-01-19T12:22:39;1.40;99.90
17587;DHT22;8912;52.336;17.172;2023-01-19T12:25:21;1.50;99.90
17587;DHT22;8912;52.336;17.172;2023-01-19T12:27:51;1.50;99.90
17587;DHT22;8912;52.336;17.172;2023-01-19T12:30:23;1.50;99.90
17587;DHT22;8912;52.336;17.172;2023-01-19T12:33:19;1.50;99.90
17587;DHT22;8912;52.336;17.172;2023-01-19T12:35:58;1.50;99.90
17587;DHT22;8912;52.336;17.172;2023-01-19T12:38:44;1.50;99.90
17587;DHT22;8912;52.336;17.172;2023-01-19T12:41:19;1.40;99.90
17587;DHT22;8912;52.336;17.172;2023-01-19T12:44:14;1.50;99.90
17587;DHT22;8912;52.336;17.172;2023-01-19T12:46:47;1.40;99.90
17587;DHT22;8912;52.336;17.172;2023-01-19T12:49:26;1.40;99.90
17587;DHT22;8912;52.336;17.172;2023-01-19T12:55:02;1.40;99.90
17587;DHT22;8912;52.336;17.172;2023-01-19T12:57:37;1.40;99.90
17587;DHT22;8912;52.336;17.172;2023-01-19T13:00:28;1.30;99.90
17587;DHT22;8912;52.336;17.172;2023-01-19T13:02:58;1.30;99.90
17587;DHT22;8912;52.336;17.172;2023-01-19T13:05:58;1.30;99.90
17587;DHT22;8912;52.336;17.172;2023-01-19T13:08:35;1.40;99.90
17587;DHT22;8912;52.336;17.172;2023-01-19T13:11:21;1.40;99.90
17587;DHT22;8912;52.336;17.172;2023-01-19T13:17:25;1.50;99.90
17587;DHT22;8912;52.336;17.172;2023-01-19T13:20:21;1.70;99.90
17587;DHT22;8912;52.336;17.172;2023-01-19T13:23:15;1.90;99.90
17587;DHT22;8912;52.336;17.172;2023-01-19T13:26:00;2.10;99.90
17587;DHT22;8912;52.336;17.172;2023-01-19T13:28:37;2.20;99.90
17587;DHT22;8912;52.336;17.172;2023-01-19T13:31:06;2.10;99.90
17587;DHT22;8912;52.336;17.172;2023-01-19T13:33:42;2.00;99.90
17587;DHT22;8912;52.336;17.172;2023-01-19T13:36:22;1.90;99.90
17587;DHT22;8912;52.336;17.172;2023-01-19T13:38:54;1.80;99.90
17587;DHT22;8912;52.336;17.172;2023-01-19T13:41:26;1.70;99.90
17587;DHT22;8912;52.336;17.172;2023-01-19T13:44:06;1.80;99.90
17587;DHT22;8912;52.336;17.172;2023-01-19T13:46:37;1.80;99.90
17587;DHT22;8912;52.336;17.172;2023-01-19T13:49:14;1.70;99.90
17587;DHT22;8912;52.336;17.172;2023-01-19T13:51:44;1.50;99.90
17587;DHT22;8912;52.336;17.172;2023-01-19T13:54:16;1.50;99.90
17587;DHT22;8912;52.336;17.172;2023-01-19T13:56:46;1.50;99.90
17587;DHT22;8912;52.336;17.172;2023-01-19T13:59:18;1.40;99.90
17587;DHT22;8912;52.336;17.172;2023-01-19T14:01:47;1.40;99.90
17587;DHT22;8912;52.336;17.172;2023-01-19T14:04:26;1.40;99.90
17587;DHT22;8912;52.336;17.172;2023-01-19T14:06:57;1.40;99.90
17587;DHT22;8912;52.336;17.172;2023-01-19T14:09:28;1.30;99.90
17587;DHT22;8912;52.336;17.172;2023-01-19T14:12:06;1.20;99.90
17587;DHT22;8912;52.336;17.172;2023-01-19T14:14:38;1.20;99.90
17587;DHT22;8912;52.336;17.172;2023-01-19T14:17:22;1.20;99.90
17587;DHT22;8912;52.336;17.172;2023-01-19T14:19:53;1.10;99.90
17587;DHT22;8912;52.336;17.172;2023-01-19T14:22:37;1.00;99.90
17587;DHT22;8912;52.336;17.172;2023-01-19T14:25:28;0.90;99.90
17587;DHT22;8912;52.336;17.172;2023-01-19T14:28:26;0.90;99.90
17587;DHT22;8912;52.336;17.172;2023-01-19T14:30:59;0.80;99.90
17587;DHT22;8912;52.336;17.172;2023-01-19T14:33:33;0.70;99.90
17587;DHT22;8912;52.336;17.172;2023-01-19T14:36:10;0.60;99.90
17587;DHT22;8912;52.336;17.172;2023-01-19T14:38:49;0.50;99.90
17587;DHT22;8912;52.336;17.172;2023-01-19T14:41:24;0.40;99.90
17587;DHT22;8912;52.336;17.172;2023-01-19T14:43:54;0.30;99.90
17587;DHT22;8912;52.336;17.172;2023-01-19T14:46:26;0.10;99.90
17587;DHT22;8912;52.336;17.172;2023-01-19T14:48:59;0.10;99.90
17587;DHT22;8912;52.336;17.172;2023-01-19T14:51:30;0.00;99.90
17587;DHT22;8912;52.336;17.172;2023-01-19T14:54:00;-0.10;99.90
17587;DHT22;8912;52.336;17.172;2023-01-19T14:56:31;-0.10;99.90
17587;DHT22;8912;52.336;17.172;2023-01-19T14:59:08;-0.20;99.90
17587;DHT22;8912;52.336;17.172;2023-01-19T15:01:39;-0.20;99.90
17587;DHT22;8912;52.336;17.172;2023-01-19T15:04:09;-0.30;99.90
17587;DHT22;8912;52.336;17.172;2023-01-19T15:06:39;-0.30;99.90
17587;DHT22;8912;52.336;17.172;2023-01-19T15:09:12;-0.30;99.90
17587;DHT22;8912;52.336;17.172;2023-01-19T15:11:42;-0.40;99.90
17587;DHT22;8912;52.336;17.172;2023-01-19T15:14:14;-0.50;99.90
17587;DHT22;8912;52.336;17.172;2023-01-19T15:16:46;-0.60;99.90
17587;DHT22;8912;52.336;17.172;2023-01-19T15:19:16;-0.60;99.90
17587;DHT22;8912;52.336;17.172;2023-01-19T15:21:45;-0.70;99.90
17587;DHT22;8912;52.336;17.172;2023-01-19T15:24:14;-0.70;99.90
17587;DHT22;8912;52.336;17.172;2023-01-19T15:26:44;-0.70;99.90
17587;DHT22;8912;52.336;17.172;2023-01-19T15:29:19;-0.70;99.90
17587;DHT22;8912;52.336;17.172;2023-01-19T15:31:51;-0.70;99.90
17587;DHT22;8912;52.336;17.172;2023-01-19T15:34:20;-0.70;99.90
17587;DHT22;8912;52.336;17.172;2023-01-19T15:36:49;-0.60;99.90
17587;DHT22;8912;52.336;17.172;2023-01-19T15:39:18;-0.50;99.90
17587;DHT22;8912;52.336;17.172;2023-01-19T15:41:48;-0.60;99.90
17587;DHT22;8912;52.336;17.172;2023-01-19T15:44:16;-0.70;99.90
17587;DHT22;8912;52.336;17.172;2023-01-19T15:46:45;-0.70;99.90
17587;DHT22;8912;52.336;17.172;2023-01-19T15:49:15;-0.70;99.90
17587;DHT22;8912;52.336;17.172;2023-01-19T15:51:44;-0.80;99.90
17587;DHT22;8912;52.336;17.172;2023-01-19T15:54:13;-0.90;99.90
17587;DHT22;8912;52.336;17.172;2023-01-19T15:56:42;-1.00;99.90
17587;DHT22;8912;52.336;17.172;2023-01-19T15:59:11;-1.00;99.90
17587;DHT22;8912;52.336;17.172;2023-01-19T16:01:41;-1.10;99.90
17587;DHT22;8912;52.336;17.172;2023-01-19T16:04:10;-1.10;99.90
17587;DHT22;8912;52.336;17.172;2023-01-19T16:06:41;-1.00;99.90
17587;DHT22;8912;52.336;17.172;2023-01-19T16:09:10;-0.90;99.90
17587;DHT22;8912;52.336;17.172;2023-01-19T16:11:45;-0.90;99.90
17587;DHT22;8912;52.336;17.172;2023-01-19T16:14:13;-0.90;99.90
17587;DHT22;8912;52.336;17.172;2023-01-19T16:16:44;-0.90;99.90
17587;DHT22;8912;52.336;17.172;2023-01-19T16:19:13;-0.90;99.90
17587;DHT22;8912;52.336;17.172;2023-01-19T16:21:44;-0.90;99.90
17587;DHT22;8912;52.336;17.172;2023-01-19T16:24:13;-0.90;99.90
17587;DHT22;8912;52.336;17.172;2023-01-19T16:26:42;-0.90;99.90